Time;durP1;ratioP1;P1;durP2;ratioP2;P2;SDS_P1;SDS_P2;PMS_P1;PMS_P2;Temp;Humidity;BMP_temperature;BMP_pressure;BME280_temperature;BME280_humidity;BME280_pressure;Samples;Min_cycle;Max_cycle;Signal;HPM_P1;HPM_P2
2023/01/05 00:01:46;;;;;;;34.15;22.27;;;6.80;99.90;;;;;;5094633;28;20164;-82
2023/01/05 00:04:12;;;;;;;41.07;25.20;;;6.80;99.90;;;;;;5094632;28;20204;-82
2023/01/05 00:06:38;;;;;;;37.40;22.67;;;6.90;99.90;;;;;;5094571;28;20400;-84
2023/01/05 00:09:05;;;;;;;31.77;19.15;;;6.90;99.90;;;;;;5094404;28;20433;-82
2023/01/05 00:22:50;;;;;;;46.33;26.83;;;7.40;99.90;;;;;;5094293;28;20304;-84
2023/01/05 00:25:25;;;;;;;40.88;26.73;;;7.40;99.90;;;;;;5092810;28;20548;-85
2023/01/05 00:27:52;;;;;;;36.90;24.15;;;7.50;99.90;;;;;;5094162;28;20187;-82
2023/01/05 00:30:28;;;;;;;36.63;25.25;;;7.60;99.90;;;;;;5093073;28;20192;-82
2023/01/05 00:32:53;;;;;;;32.80;23.40;;;7.60;99.90;;;;;;5092827;28;20275;-82
2023/01/05 00:35:20;;;;;;;33.77;23.23;;;7.70;99.90;;;;;;5092916;28;20626;-84
2023/01/05 00:37:46;;;;;;;41.00;25.25;;;7.70;99.90;;;;;;5094028;28;20395;-84
2023/01/05 00:40:15;;;;;;;31.73;21.47;;;7.70;99.90;;;;;;5092918;28;20299;-82
2023/01/05 00:42:41;;;;;;;30.73;21.02;;;7.70;99.90;;;;;;5093967;28;20195;-83
2023/01/05 00:45:09;;;;;;;36.40;24.73;;;7.70;99.90;;;;;;5092881;28;20629;-82
2023/01/05 00:47:35;;;;;;;34.42;21.52;;;7.70;99.90;;;;;;5093825;28;20580;-83
2023/01/05 00:50:01;;;;;;;34.73;22.00;;;7.60;99.90;;;;;;5094281;28;20168;-82
2023/01/05 00:52:27;;;;;;;35.35;23.02;;;7.60;99.90;;;;;;5093828;28;20186;-84
2023/01/05 00:54:53;;;;;;;34.07;22.83;;;7.60;99.90;;;;;;5092343;28;20240;-84
2023/01/05 00:57:21;;;;;;;37.20;23.40;;;7.60;99.90;;;;;;5092514;28;20223;-82
2023/01/05 00:59:47;;;;;;;38.65;22.70;;;7.70;99.90;;;;;;5092530;28;20607;-82
2023/01/05 01:02:13;;;;;;;33.90;23.43;;;7.70;99.90;;;;;;5093811;28;20196;-84
2023/01/05 01:04:39;;;;;;;35.53;24.10;;;7.70;99.90;;;;;;5093574;28;20241;-82
2023/01/05 01:07:04;;;;;;;38.20;23.63;;;7.80;99.90;;;;;;5092453;28;20413;-84
2023/01/05 01:09:31;;;;;;;29.70;22.30;;;7.80;99.90;;;;;;5093947;28;20184;-82
2023/01/05 01:11:56;;;;;;;32.92;22.77;;;7.80;99.90;;;;;;5093726;28;20639;-82
2023/01/05 01:14:22;;;;;;;30.67;21.60;;;7.90;99.90;;;;;;5092378;28;20228;-85
2023/01/05 01:16:48;;;;;;;35.73;22.50;;;7.90;99.90;;;;;;5093641;28;20199;-82
2023/01/05 01:19:16;;;;;;;36.90;25.03;;;7.80;99.90;;;;;;5093778;28;20192;-82
2023/01/05 01:21:42;;;;;;;36.40;23.63;;;7.70;99.90;;;;;;5093577;28;20397;-84
2023/01/05 01:24:13;;;;;;;35.60;23.67;;;7.70;99.90;;;;;;5093661;28;20237;-85
2023/01/05 01:26:39;;;;;;;33.40;21.85;;;7.60;99.90;;;;;;5092297;28;20183;-82
2023/01/05 01:29:05;;;;;;;38.00;25.10;;;7.60;99.90;;;;;;5093663;28;20283;-82
2023/01/05 01:31:30;;;;;;;35.67;23.67;;;7.60;99.90;;;;;;5092286;28;20546;-84
2023/01/05 01:33:56;;;;;;;36.07;23.47;;;7.50;99.90;;;;;;5092215;28;20200;-82
2023/01/05 01:36:22;;;;;;;39.63;24.53;;;7.50;99.90;;;;;;5092774;28;20200;-82
2023/01/05 01:38:48;;;;;;;37.17;23.07;;;7.40;99.90;;;;;;5097468;28;20472;-81
2023/01/05 01:41:13;;;;;;;35.90;25.40;;;7.40;99.90;;;;;;5097389;28;20173;-82
2023/01/05 01:43:47;;;;;;;37.27;24.03;;;7.30;99.90;;;;;;5097311;28;20220;-82
2023/01/05 01:46:14;;;;;;;39.25;26.15;;;7.20;99.90;;;;;;5096040;28;20216;-82
2023/01/05 01:49:02;;;;;;;38.15;27.00;;;7.10;99.90;;;;;;5097216;28;20594;-83
2023/01/05 01:51:32;;;;;;;37.28;25.17;;;7.10;99.90;;;;;;5095971;28;20169;-84
2023/01/05 01:54:01;;;;;;;42.33;25.65;;;7.10;99.90;;;;;;5095552;28;20251;-84
2023/01/05 01:56:33;;;;;;;41.83;26.42;;;7.20;99.90;;;;;;5097055;28;20194;-84
2023/01/05 01:58:59;;;;;;;40.45;25.63;;;7.10;99.90;;;;;;5097196;28;20257;-84
2023/01/05 02:01:25;;;;;;;41.40;26.00;;;7.10;99.90;;;;;;5096937;28;20168;-82
2023/01/05 02:03:51;;;;;;;37.72;25.15;;;7.00;99.90;;;;;;5095622;28;20283;-84
2023/01/05 02:06:16;;;;;;;41.57;23.97;;;7.00;99.90;;;;;;5095619;28;20286;-83
2023/01/05 02:08:42;;;;;;;36.07;24.73;;;6.90;99.90;;;;;;5096649;28;20203;-84
2023/01/05 02:11:45;;;;;;;35.50;23.13;;;6.90;99.90;;;;;;5096953;28;20652;-82
2023/01/05 02:14:20;;;;;;;36.38;24.92;;;6.80;99.90;;;;;;5095258;28;20212;-84
2023/01/05 02:16:55;;;;;;;37.58;25.30;;;6.80;99.90;;;;;;5096759;28;20168;-82
2023/01/05 02:19:39;;;;;;;38.30;24.52;;;6.80;99.90;;;;;;5096987;28;20226;-83
2023/01/05 02:22:29;;;;;;;37.15;24.10;;;6.80;99.90;;;;;;5096523;28;20568;-84
2023/01/05 02:25:10;;;;;;;36.10;24.48;;;6.80;99.90;;;;;;5095420;28;20275;-84
2023/01/05 02:27:43;;;;;;;34.45;22.65;;;6.80;99.90;;;;;;5095113;28;20192;-82
2023/01/05 02:30:31;;;;;;;31.42;22.75;;;6.80;99.90;;;;;;5095123;28;20183;-82
2023/01/05 02:33:13;;;;;;;36.47;22.35;;;6.80;99.90;;;;;;5095067;28;20203;-82
2023/01/05 02:35:56;;;;;;;33.80;20.58;;;6.80;99.90;;;;;;5096199;28;20214;-82
2023/01/05 02:38:25;;;;;;;32.60;20.95;;;6.80;99.90;;;;;;5096297;28;20245;-84
2023/01/05 02:40:56;;;;;;;28.92;21.10;;;6.80;99.90;;;;;;5096219;28;20169;-82
2023/01/05 02:43:22;;;;;;;34.10;20.98;;;6.80;99.90;;;;;;5096147;28;20279;-82
2023/01/05 02:45:48;;;;;;;41.33;25.45;;;6.80;99.90;;;;;;5094911;28;20187;-84
2023/01/05 02:48:14;;;;;;;39.15;24.42;;;6.80;99.90;;;;;;5095769;28;20207;-84
2023/01/05 02:50:43;;;;;;;34.17;23.07;;;6.80;99.90;;;;;;5094814;28;20172;-84
2023/01/05 02:53:20;;;;;;;39.20;25.15;;;6.90;99.90;;;;;;5094531;28;20421;-85
2023/01/05 02:55:55;;;;;;;35.20;23.48;;;6.90;99.90;;;;;;5094605;28;20211;-82
2023/01/05 02:58:26;;;;;;;43.78;27.80;;;6.90;99.90;;;;;;5094584;28;20265;-84
2023/01/05 03:01:06;;;;;;;40.33;27.23;;;7.10;99.90;;;;;;5094584;28;20172;-84
2023/01/05 03:03:40;;;;;;;39.15;24.45;;;7.30;99.90;;;;;;5094343;28;20259;-84
2023/01/05 03:06:14;;;;;;;31.30;22.48;;;7.40;99.90;;;;;;5094578;28;20177;-82
2023/01/05 03:08:48;;;;;;;35.70;22.65;;;7.50;99.90;;;;;;5095800;28;20562;-82
2023/01/05 03:14:13;;;;;;;30.23;20.45;;;7.50;99.90;;;;;;5096079;28;20211;-82
2023/01/05 03:16:39;;;;;;;30.73;21.40;;;7.50;99.90;;;;;;5094260;28;20215;-84
2023/01/05 03:36:05;;;;;;;32.80;22.13;;;7.00;99.90;;;;;;5095156;28;20711;-84
2023/01/05 03:38:42;;;;;;;33.65;22.10;;;7.10;99.90;;;;;;5093675;28;20712;-84
2023/01/05 03:41:11;;;;;;;38.22;23.02;;;7.10;99.90;;;;;;5093930;28;20183;-84
2023/01/05 03:43:38;;;;;;;34.85;22.48;;;7.10;99.90;;;;;;5094930;28;20192;-83
2023/01/05 03:46:14;;;;;;;33.42;23.85;;;7.20;99.90;;;;;;5093704;28;20176;-82
2023/01/05 03:48:40;;;;;;;31.75;23.80;;;7.20;99.90;;;;;;5093801;28;20199;-82
2023/01/05 03:51:06;;;;;;;35.27;24.33;;;7.20;99.90;;;;;;5094969;28;20172;-84
2023/01/05 03:53:32;;;;;;;39.70;24.30;;;7.30;99.90;;;;;;5094496;28;20464;-82
2023/01/05 03:55:58;;;;;;;35.63;24.60;;;7.40;99.90;;;;;;5094771;28;20208;-84
2023/01/05 03:58:23;;;;;;;39.73;25.17;;;7.40;99.90;;;;;;5093336;28;20198;-85
2023/01/05 04:00:49;;;;;;;39.33;24.90;;;7.50;99.90;;;;;;5093948;28;20172;-82
2023/01/05 04:03:15;;;;;;;37.43;26.80;;;7.40;99.90;;;;;;5093367;28;20564;-84
2023/01/05 04:05:40;;;;;;;39.20;26.47;;;7.10;99.90;;;;;;5093327;28;20176;-84
2023/01/05 04:08:07;;;;;;;35.80;25.27;;;6.80;99.90;;;;;;5094289;28;20188;-85
2023/01/05 04:10:32;;;;;;;45.83;29.77;;;6.60;99.90;;;;;;5094508;28;20234;-84
2023/01/05 04:12:58;;;;;;;42.50;27.80;;;6.50;99.90;;;;;;5094411;28;20196;-82
2023/01/05 04:15:24;;;;;;;39.60;27.40;;;6.30;99.90;;;;;;5094783;28;20219;-82
2023/01/05 04:17:50;;;;;;;41.40;27.25;;;6.20;99.90;;;;;;5094338;28;20227;-85
2023/01/05 04:20:15;;;;;;;39.27;27.93;;;6.20;99.90;;;;;;5094794;28;20633;-84
2023/01/05 04:22:41;;;;;;;49.93;29.43;;;6.30;99.90;;;;;;5093010;28;20188;-82
2023/01/05 04:25:08;;;;;;;43.97;26.97;;;6.30;99.90;;;;;;5093229;28;20184;-82
2023/01/05 04:27:33;;;;;;;47.75;30.15;;;6.40;99.90;;;;;;5094058;28;20230;-84
2023/01/05 04:29:59;;;;;;;41.03;30.17;;;6.50;99.90;;;;;;5093108;28;20188;-82
2023/01/05 04:32:25;;;;;;;44.90;29.43;;;6.60;99.90;;;;;;5094113;28;20196;-82
2023/01/05 04:34:50;;;;;;;42.73;29.43;;;6.70;99.90;;;;;;5094403;28;20565;-83
2023/01/05 04:37:16;;;;;;;42.57;27.63;;;6.80;99.90;;;;;;5092762;28;20302;-82
2023/01/05 04:39:42;;;;;;;47.00;30.57;;;6.80;99.90;;;;;;5094542;28;20203;-85
2023/01/05 04:42:09;;;;;;;40.30;27.00;;;6.90;99.90;;;;;;5092743;28;20172;-82
2023/01/05 04:44:34;;;;;;;41.80;27.83;;;6.90;99.90;;;;;;5094256;28;20200;-82
2023/01/05 04:47:00;;;;;;;42.80;30.40;;;6.80;99.90;;;;;;5093936;28;20250;-84
2023/01/05 04:49:25;;;;;;;45.90;30.30;;;6.80;99.90;;;;;;5093814;28;20180;-83
2023/01/05 04:51:51;;;;;;;44.63;30.73;;;6.70;99.90;;;;;;5092639;28;20176;-82
2023/01/05 04:54:17;;;;;;;46.30;29.83;;;6.60;99.90;;;;;;5093598;28;20235;-83
2023/01/05 04:56:43;;;;;;;43.80;29.50;;;6.50;99.90;;;;;;5093805;28;20161;-84
2023/01/05 04:59:08;;;;;;;42.73;28.33;;;6.40;99.90;;;;;;5092492;28;20695;-84
2023/01/05 05:01:34;;;;;;;50.43;29.43;;;6.40;99.90;;;;;;5093830;28;20411;-82
2023/01/05 05:04:00;;;;;;;49.90;33.00;;;6.40;99.90;;;;;;5093901;28;20206;-82
2023/01/05 05:06:25;;;;;;;44.97;32.57;;;6.40;99.90;;;;;;5092433;28;20180;-83
2023/01/05 05:08:52;;;;;;;45.03;31.03;;;6.20;99.90;;;;;;5093621;28;20196;-83
2023/01/05 05:11:17;;;;;;;45.25;31.45;;;6.10;99.90;;;;;;5094522;28;20176;-84
2023/01/05 05:13:43;;;;;;;57.60;34.53;;;6.20;99.90;;;;;;5096589;28;20211;-85
2023/01/05 05:16:08;;;;;;;49.87;31.93;;;6.20;99.90;;;;;;5097772;28;20208;-84
2023/01/05 05:18:34;;;;;;;52.20;32.10;;;6.30;99.90;;;;;;5097824;28;20646;-84
2023/01/05 05:21:00;;;;;;;50.47;31.90;;;6.30;99.90;;;;;;5096596;28;20259;-83
2023/01/05 05:23:26;;;;;;;49.57;33.67;;;6.50;99.90;;;;;;5097472;28;20204;-82
2023/01/05 05:25:52;;;;;;;59.63;36.47;;;6.50;99.90;;;;;;5096425;28;20221;-81
2023/01/05 05:28:19;;;;;;;56.92;33.38;;;6.60;99.90;;;;;;5096199;28;20196;-82
2023/01/05 05:30:47;;;;;;;53.70;32.47;;;6.50;99.90;;;;;;5096331;28;20177;-83
2023/01/05 05:33:12;;;;;;;54.88;36.60;;;6.50;99.90;;;;;;5096073;28;20188;-86
2023/01/05 05:35:38;;;;;;;51.47;35.17;;;6.50;99.90;;;;;;5096182;28;20258;-82
2023/01/05 05:38:04;;;;;;;50.90;30.10;;;6.40;99.90;;;;;;5096130;28;20601;-84
2023/01/05 05:40:29;;;;;;;53.20;32.70;;;6.30;99.90;;;;;;5097316;28;20169;-83
2023/01/05 05:42:55;;;;;;;46.20;31.50;;;6.10;99.90;;;;;;5097382;28;20189;-82
2023/01/05 05:45:21;;;;;;;52.73;34.53;;;6.00;99.90;;;;;;5097719;28;20191;-82
2023/01/05 05:47:46;;;;;;;59.60;33.90;;;6.00;99.90;;;;;;5097220;28;20280;-85
2023/01/05 05:50:12;;;;;;;56.90;36.00;;;6.00;99.90;;;;;;5096132;28;20184;-82
2023/01/05 05:52:38;;;;;;;53.87;35.73;;;5.90;99.90;;;;;;5097001;28;20676;-84
2023/01/05 05:55:04;;;;;;;57.67;32.43;;;6.00;99.90;;;;;;5096813;28;20485;-84
2023/01/05 05:57:29;;;;;;;55.20;34.72;;;6.00;99.90;;;;;;5096958;28;20692;-82
2023/01/05 05:59:55;;;;;;;52.90;34.83;;;6.10;99.90;;;;;;5095939;28;20218;-82
2023/01/05 06:02:21;;;;;;;62.80;39.10;;;6.20;99.90;;;;;;5096869;28;20661;-82
2023/01/05 06:04:46;;;;;;;67.20;42.97;;;6.40;99.90;;;;;;5097354;28;20198;-84
2023/01/05 06:07:12;;;;;;;55.77;36.57;;;6.40;99.90;;;;;;5095592;28;20585;-84
2023/01/05 06:09:38;;;;;;;59.93;37.33;;;6.50;99.90;;;;;;5097096;28;20184;-84
2023/01/05 06:12:04;;;;;;;57.80;36.30;;;6.50;99.90;;;;;;5096796;28;20172;-84
2023/01/05 06:14:29;;;;;;;74.53;39.20;;;6.60;99.90;;;;;;5096510;28;20222;-82
2023/01/05 06:16:55;;;;;;;60.30;38.77;;;6.60;99.90;;;;;;5095454;28;20168;-84
2023/01/05 06:19:21;;;;;;;63.10;39.80;;;6.70;99.90;;;;;;5096690;28;20176;-82
2023/01/05 06:21:47;;;;;;;85.10;50.00;;;6.70;99.90;;;;;;5096320;28;20601;-83
2023/01/05 06:24:12;;;;;;;78.13;46.20;;;6.70;99.90;;;;;;5096027;28;20231;-84
2023/01/05 06:26:38;;;;;;;66.67;39.53;;;6.70;99.90;;;;;;5096494;28;20229;-82
2023/01/05 06:29:04;;;;;;;57.10;38.47;;;6.80;99.90;;;;;;5096651;28;20192;-82
2023/01/05 06:31:29;;;;;;;59.83;38.13;;;6.80;99.90;;;;;;5095177;28;20172;-83
2023/01/05 06:33:55;;;;;;;58.40;37.27;;;6.80;99.90;;;;;;5096278;28;20204;-84
2023/01/05 06:36:21;;;;;;;55.22;40.28;;;6.80;99.90;;;;;;5095044;28;20223;-84
2023/01/05 06:38:47;;;;;;;62.73;40.40;;;6.80;99.90;;;;;;5096317;28;20713;-84
2023/01/05 06:41:12;;;;;;;61.17;39.97;;;6.80;99.90;;;;;;5094959;28;20173;-84
2023/01/05 06:43:38;;;;;;;68.83;44.73;;;6.70;99.90;;;;;;5096128;28;20200;-82
2023/01/05 06:46:04;;;;;;;72.67;44.07;;;6.70;99.90;;;;;;5096164;28;20691;-82
2023/01/05 06:48:29;;;;;;;69.13;41.50;;;6.80;99.90;;;;;;5095966;28;20199;-82
2023/01/05 06:50:55;;;;;;;75.37;45.80;;;6.80;99.90;;;;;;5094792;28;20173;-82
2023/01/05 06:53:21;;;;;;;74.73;48.23;;;6.90;99.90;;;;;;5095596;28;20272;-82
2023/01/05 06:55:46;;;;;;;82.77;49.80;;;6.90;99.90;;;;;;5094447;28;20459;-84
2023/01/05 06:58:12;;;;;;;88.30;53.77;;;6.90;99.90;;;;;;5095860;28;20591;-82
2023/01/05 07:00:38;;;;;;;80.83;52.67;;;6.90;99.90;;;;;;5095881;28;20184;-82
2023/01/05 07:03:05;;;;;;;63.00;41.47;;;6.80;99.90;;;;;;5094543;28;20546;-84
2023/01/05 07:05:31;;;;;;;64.80;41.55;;;6.70;99.90;;;;;;5094705;28;20191;-85
2023/01/05 07:07:56;;;;;;;71.80;44.23;;;6.70;99.90;;;;;;5095535;28;20626;-84
2023/01/05 07:10:23;;;;;;;66.13;43.50;;;6.60;99.90;;;;;;5096107;28;20177;-82
2023/01/05 07:12:48;;;;;;;62.40;41.60;;;6.50;99.90;;;;;;5094153;28;20232;-84
2023/01/05 07:15:14;;;;;;;65.47;39.03;;;6.40;99.90;;;;;;5095963;28;20703;-82
2023/01/05 07:17:40;;;;;;;62.17;39.40;;;6.40;99.90;;;;;;5093901;28;20618;-82
2023/01/05 07:20:07;;;;;;;57.23;38.23;;;6.30;99.90;;;;;;5095902;28;20184;-82
2023/01/05 07:22:33;;;;;;;59.28;38.72;;;6.30;99.90;;;;;;5093968;28;20527;-82
2023/01/05 07:24:59;;;;;;;58.63;35.90;;;6.20;99.90;;;;;;5094220;28;20708;-82
2023/01/05 07:27:24;;;;;;;68.10;38.03;;;6.20;99.90;;;;;;5093840;28;20440;-84
2023/01/05 07:29:50;;;;;;;67.77;43.60;;;6.30;99.90;;;;;;5094210;28;20187;-83
2023/01/05 07:32:16;;;;;;;59.17;40.53;;;6.30;99.90;;;;;;5094622;28;20206;-81
2023/01/05 07:34:42;;;;;;;74.07;42.97;;;6.20;99.90;;;;;;5094038;28;20681;-82
2023/01/05 07:37:08;;;;;;;65.60;40.53;;;6.20;99.90;;;;;;5091293;28;20266;-84
2023/01/05 07:39:34;;;;;;;60.40;39.23;;;6.20;99.90;;;;;;5094888;28;20189;-82
2023/01/05 07:41:59;;;;;;;63.77;41.20;;;6.30;99.90;;;;;;5093791;28;20172;-84
2023/01/05 07:44:25;;;;;;;65.87;43.07;;;6.40;99.90;;;;;;5093299;28;20208;-82
2023/01/05 07:46:51;;;;;;;66.73;43.67;;;6.40;99.90;;;;;;5091611;28;20530;-82
2023/01/05 07:49:16;;;;;;;75.67;43.00;;;6.50;99.90;;;;;;5092650;28;20598;-82
2023/01/05 07:51:42;;;;;;;72.67;43.80;;;6.70;99.90;;;;;;5090912;28;20591;-83
2023/01/05 07:54:08;;;;;;;68.10;45.60;;;6.70;99.90;;;;;;5090495;28;20255;-83
2023/01/05 07:56:34;;;;;;;73.10;43.40;;;6.80;99.90;;;;;;5091020;28;20675;-82
2023/01/05 07:58:59;;;;;;;75.43;46.70;;;6.80;99.90;;;;;;5091341;28;20224;-84
2023/01/05 08:01:25;;;;;;;63.70;43.33;;;6.90;99.90;;;;;;5092593;28;20376;-83
2023/01/05 08:03:51;;;;;;;75.80;45.80;;;6.90;99.90;;;;;;5092508;28;20197;-84
2023/01/05 08:06:18;;;;;;;66.50;45.47;;;6.90;99.90;;;;;;5092359;28;20846;-82
2023/01/05 08:08:45;;;;;;;80.15;46.22;;;6.90;99.90;;;;;;5091420;28;20200;-84
2023/01/05 08:11:14;;;;;;;70.95;46.20;;;6.90;99.90;;;;;;5094559;28;20192;-81
2023/01/05 08:13:58;;;;;;;69.70;42.80;;;7.00;99.90;;;;;;5092680;28;20197;-82
2023/01/05 08:16:25;;;;;;;64.78;43.58;;;7.20;99.90;;;;;;5092953;28;20344;-84
2023/01/05 08:18:50;;;;;;;59.88;39.88;;;7.40;99.90;;;;;;5099993;28;20210;-85
2023/01/05 08:21:16;;;;;;;59.47;37.17;;;7.90;99.90;;;;;;5112723;28;20688;-85
2023/01/05 08:23:44;;;;;;;52.38;32.35;;;8.30;99.90;;;;;;5110787;28;20589;-82
2023/01/05 08:26:19;;;;;;;65.07;41.03;;;8.70;99.90;;;;;;5111188;28;20176;-84
2023/01/05 08:28:45;;;;;;;60.60;35.63;;;8.90;99.90;;;;;;5112116;28;20197;-82
2023/01/05 08:31:14;;;;;;;63.10;44.63;;;8.80;99.90;;;;;;5107295;28;20172;-85
2023/01/05 08:33:39;;;;;;;59.25;38.38;;;8.70;99.90;;;;;;5096228;28;20460;-85
2023/01/05 08:36:10;;;;;;;56.67;37.43;;;8.80;99.90;;;;;;5096516;28;20199;-83
2023/01/05 08:38:36;;;;;;;84.05;53.65;;;8.80;99.90;;;;;;5100366;28;20208;-84
2023/01/05 08:41:02;;;;;;;84.25;54.78;;;8.80;99.90;;;;;;5098963;28;20641;-84
2023/01/05 08:43:28;;;;;;;58.33;40.77;;;8.90;99.90;;;;;;5091426;28;20214;-84
2023/01/05 08:45:54;;;;;;;62.87;42.27;;;9.00;99.90;;;;;;5090038;28;20176;-82
2023/01/05 08:48:20;;;;;;;58.73;35.60;;;9.10;99.90;;;;;;5091556;28;20937;-85
2023/01/05 08:50:45;;;;;;;64.87;44.17;;;9.20;99.90;;;;;;5105304;28;20431;-82
2023/01/05 08:53:11;;;;;;;61.80;41.67;;;9.30;99.90;;;;;;5097443;28;20326;-85
2023/01/05 08:55:37;;;;;;;56.20;42.10;;;9.40;99.90;;;;;;5090770;28;20246;-82
2023/01/05 08:58:07;;;;;;;61.08;44.92;;;9.50;99.90;;;;;;5091182;28;20573;-83
2023/01/05 09:00:33;;;;;;;59.72;38.90;;;9.80;99.90;;;;;;5094722;28;20179;-86
2023/01/05 09:02:59;;;;;;;51.60;38.53;;;10.20;99.90;;;;;;5109795;28;20256;-82
2023/01/05 09:05:25;;;;;;;55.17;39.37;;;10.50;99.90;;;;;;5108875;28;20180;-82
2023/01/05 09:07:50;;;;;;;68.30;42.97;;;10.80;99.90;;;;;;5091763;28;20799;-83
2023/01/05 09:10:16;;;;;;;70.53;48.20;;;11.30;99.90;;;;;;5092960;28;20444;-84
2023/01/05 09:12:42;;;;;;;62.50;41.33;;;11.60;99.90;;;;;;5092697;28;20725;-85
2023/01/05 09:15:08;;;;;;;54.50;39.90;;;12.00;99.90;;;;;;5092861;28;20208;-85
2023/01/05 09:17:37;;;;;;;51.60;37.57;;;12.00;99.90;;;;;;5091137;28;20197;-83
2023/01/05 09:20:03;;;;;;;60.17;40.43;;;11.90;99.90;;;;;;5090018;28;20821;-82
2023/01/05 09:22:34;;;;;;;58.37;42.87;;;11.80;99.90;;;;;;5088841;28;20498;-85
2023/01/05 09:25:00;;;;;;;70.90;47.10;;;11.60;99.90;;;;;;5088836;28;20925;-85
2023/01/05 09:27:26;;;;;;;57.40;39.50;;;11.60;99.90;;;;;;5088768;28;20520;-84
2023/01/05 09:29:51;;;;;;;60.30;40.93;;;11.60;99.90;;;;;;5087246;28;20917;-84
2023/01/05 09:32:17;;;;;;;67.47;43.53;;;11.70;99.90;;;;;;5088424;28;20604;-85
2023/01/05 09:34:43;;;;;;;51.90;38.70;;;12.00;99.90;;;;;;5087974;28;20559;-85
2023/01/05 09:37:09;;;;;;;64.90;43.97;;;12.10;99.90;;;;;;5089430;28;20176;-84
2023/01/05 09:39:35;;;;;;;60.00;43.57;;;12.10;99.90;;;;;;5089338;28;20252;-83
2023/01/05 09:42:05;;;;;;;58.87;40.33;;;11.90;99.90;;;;;;5089511;28;20496;-82
2023/01/05 09:44:32;;;;;;;82.67;49.73;;;11.90;99.90;;;;;;5096827;28;20274;-83
2023/01/05 09:47:25;;;;;;;60.73;42.70;;;12.00;99.90;;;;;;5110453;28;20456;-83
2023/01/05 09:49:53;;;;;;;77.43;46.10;;;12.50;99.90;;;;;;5110912;28;20482;-83
2023/01/05 09:52:21;;;;;;;47.90;32.30;;;12.80;99.90;;;;;;5111840;28;20439;-85
2023/01/05 09:54:47;;;;;;;61.83;39.70;;;13.00;99.90;;;;;;5110248;28;20522;-83
2023/01/05 09:57:19;;;;;;;38.30;29.73;;;13.10;99.90;;;;;;5111959;28;20790;-85
2023/01/05 09:59:53;;;;;;;52.27;33.30;;;13.10;99.90;;;;;;5114309;28;20416;-85
2023/01/05 10:02:47;;;;;;;141.73;64.00;;;13.00;99.90;;;;;;5115678;28;20443;-85
2023/01/05 10:05:14;;;;;;;48.70;33.10;;;13.00;99.90;;;;;;5116011;28;20404;-83
2023/01/05 10:08:03;;;;;;;39.40;28.40;;;13.20;99.90;;;;;;5097670;28;20957;-83
2023/01/05 10:14:20;;;;;;;41.20;34.53;;;13.50;99.90;;;;;;5094340;28;20439;-83
2023/01/05 10:16:46;;;;;;;42.23;31.80;;;13.30;99.90;;;;;;5095399;28;20996;-83
2023/01/05 10:19:17;;;;;;;36.43;28.20;;;13.00;99.90;;;;;;5096133;28;20479;-83
2023/01/05 10:22:17;;;;;;;37.43;26.00;;;12.90;99.90;;;;;;5094286;28;20176;-83
2023/01/05 10:25:06;;;;;;;33.87;23.63;;;12.80;99.90;;;;;;5096833;28;20421;-84
2023/01/05 10:27:43;;;;;;;31.43;24.83;;;12.60;99.90;;;;;;5095111;28;20815;-83
2023/01/05 10:30:12;;;;;;;39.03;26.60;;;12.30;99.90;;;;;;5094514;28;20936;-83
2023/01/05 10:32:58;;;;;;;49.20;30.53;;;12.20;99.90;;;;;;5092874;28;20481;-85
2023/01/05 10:35:27;;;;;;;58.77;37.43;;;12.20;99.90;;;;;;5094729;28;20480;-85
2023/01/05 10:38:16;;;;;;;35.60;25.47;;;12.30;99.90;;;;;;5092701;28;20454;-82
2023/01/05 10:41:08;;;;;;;29.63;23.03;;;12.40;99.90;;;;;;5088367;28;20421;-85
2023/01/05 10:43:44;;;;;;;28.70;21.97;;;12.50;99.90;;;;;;5094215;28;20794;-85
2023/01/05 10:46:12;;;;;;;28.23;20.73;;;12.60;99.90;;;;;;5094740;28;20429;-83
2023/01/05 10:48:38;;;;;;;42.93;27.03;;;12.60;99.90;;;;;;5094900;28;20782;-83
2023/01/05 10:51:05;;;;;;;37.13;26.47;;;12.60;99.90;;;;;;5095684;28;20445;-85
2023/01/05 10:53:35;;;;;;;60.73;35.20;;;12.80;99.90;;;;;;5115667;27;20809;-83
2023/01/05 10:56:09;;;;;;;45.00;30.00;;;12.80;99.90;;;;;;5115353;28;20482;-83
2023/01/05 10:58:40;;;;;;;41.37;28.30;;;12.80;99.90;;;;;;5114745;28;20487;-85
2023/01/05 11:01:24;;;;;;;71.50;45.33;;;12.70;99.90;;;;;;5114977;28;20507;-85
2023/01/05 11:04:01;;;;;;;43.17;29.60;;;12.70;99.90;;;;;;5116330;28;20428;-84
2023/01/05 11:06:31;;;;;;;47.83;33.77;;;12.60;99.90;;;;;;5116116;28;20460;-85
2023/01/05 11:09:14;;;;;;;36.17;25.93;;;12.70;99.90;;;;;;5115973;28;20428;-83
2023/01/05 11:11:40;;;;;;;53.53;36.67;;;12.70;99.90;;;;;;5114442;28;20783;-83
2023/01/05 11:14:15;;;;;;;43.43;35.73;;;12.70;99.90;;;;;;5116006;28;20439;-82
2023/01/05 11:16:50;;;;;;;62.70;35.30;;;12.80;99.90;;;;;;5107940;28;20431;-82
2023/01/05 11:19:20;;;;;;;72.27;42.77;;;12.90;99.90;;;;;;5114398;28;20447;-83
2023/01/05 11:21:45;;;;;;;96.60;55.30;;;13.00;99.90;;;;;;5112687;28;20411;-83
2023/01/05 11:24:23;;;;;;;38.03;29.10;;;13.00;99.90;;;;;;5114151;28;20808;-87
2023/01/05 11:26:52;;;;;;;21.73;15.37;;;13.00;99.90;;;;;;5112649;28;20202;-83
2023/01/05 11:29:18;;;;;;;18.80;15.40;;;13.00;99.90;;;;;;5106708;27;20500;-83
2023/01/05 11:31:49;;;;;;;16.47;14.00;;;12.90;99.90;;;;;;5101207;28;20435;-83
2023/01/05 11:34:22;;;;;;;18.23;13.90;;;12.90;99.90;;;;;;5112657;28;20436;-85
2023/01/05 11:37:12;;;;;;;17.77;14.20;;;13.00;99.90;;;;;;5111325;28;20468;-83
2023/01/05 11:39:50;;;;;;;15.40;13.00;;;13.10;99.90;;;;;;5111200;28;20469;-85
2023/01/05 11:42:24;;;;;;;15.47;12.67;;;13.20;99.90;;;;;;5110547;28;20527;-85
2023/01/05 11:44:51;;;;;;;19.40;13.07;;;13.20;99.90;;;;;;5111715;28;20912;-85
2023/01/05 11:47:28;;;;;;;18.10;14.50;;;13.30;99.90;;;;;;5096877;28;20464;-83
2023/01/05 11:50:23;;;;;;;19.97;14.93;;;13.30;99.90;;;;;;5090530;28;20440;-83
2023/01/05 11:52:57;;;;;;;20.30;14.53;;;13.30;99.90;;;;;;5055693;28;20437;-85
2023/01/05 11:55:33;;;;;;;19.93;14.50;;;13.30;99.90;;;;;;5102294;28;20506;-83
2023/01/05 11:58:24;;;;;;;16.53;13.50;;;13.20;99.90;;;;;;5114914;28;20428;-85
2023/01/05 12:00:53;;;;;;;26.63;17.93;;;13.20;99.90;;;;;;5107259;28;20437;-84
2023/01/05 12:03:37;;;;;;;17.87;14.00;;;13.20;99.90;;;;;;5111864;28;20456;-83
2023/01/05 12:06:28;;;;;;;16.80;12.50;;;13.20;99.90;;;;;;5100833;28;20783;-84
2023/01/05 12:09:00;;;;;;;17.83;13.57;;;13.30;99.90;;;;;;5091190;28;20953;-85
2023/01/05 12:11:36;;;;;;;32.93;27.87;;;13.40;99.90;;;;;;5092458;28;20821;-85
2023/01/05 12:14:13;;;;;;;20.87;15.97;;;13.40;99.90;;;;;;5091114;28;20448;-85
2023/01/05 12:16:48;;;;;;;17.20;14.00;;;13.50;99.90;;;;;;5091143;28;20511;-84
2023/01/05 12:19:51;;;;;;;21.07;15.00;;;13.50;99.90;;;;;;5094113;28;20484;-85
2023/01/05 12:22:38;;;;;;;20.70;14.97;;;13.60;99.90;;;;;;5090633;28;20844;-84
2023/01/05 12:25:19;;;;;;;18.30;14.90;;;13.60;99.90;;;;;;5091484;28;20945;-83
2023/01/05 12:28:06;;;;;;;23.10;17.00;;;13.50;99.90;;;;;;5091783;28;20481;-85
2023/01/05 12:30:49;;;;;;;22.20;15.87;;;13.50;99.90;;;;;;5112025;28;20519;-83
2023/01/05 12:33:33;;;;;;;17.90;14.80;;;13.60;99.90;;;;;;5113138;28;20432;-83
2023/01/05 12:36:27;;;;;;;19.93;15.30;;;13.70;99.90;;;;;;5114456;28;20499;-83
2023/01/05 12:39:17;;;;;;;18.93;15.60;;;13.60;99.90;;;;;;5114575;28;20436;-83
2023/01/05 12:42:01;;;;;;;20.40;14.50;;;13.60;99.90;;;;;;5113192;28;20477;-84
2023/01/05 12:44:57;;;;;;;22.20;16.57;;;13.60;99.90;;;;;;5114647;28;20439;-85
2023/01/05 12:47:47;;;;;;;25.70;16.90;;;13.50;99.90;;;;;;5112933;28;20527;-84
2023/01/05 12:50:19;;;;;;;25.70;17.27;;;13.60;99.90;;;;;;5114868;28;20448;-83
2023/01/05 12:52:48;;;;;;;25.23;18.73;;;13.50;99.90;;;;;;5114309;28;20428;-83
2023/01/05 12:55:25;;;;;;;26.33;17.70;;;13.50;99.90;;;;;;5112678;28;20571;-83
2023/01/05 12:57:58;;;;;;;26.33;18.50;;;13.50;99.90;;;;;;5112929;28;20444;-83
2023/01/05 13:00:27;;;;;;;23.90;16.50;;;13.50;99.90;;;;;;5114680;28;20439;-83
2023/01/05 13:03:12;;;;;;;21.87;16.53;;;13.40;99.90;;;;;;5114115;28;20455;-82
2023/01/05 13:06:03;;;;;;;21.80;16.77;;;13.40;99.90;;;;;;5112875;28;20424;-83
2023/01/05 13:08:38;;;;;;;19.53;16.23;;;13.30;99.90;;;;;;5112766;28;20961;-84
2023/01/05 13:11:33;;;;;;;22.40;16.70;;;13.30;99.90;;;;;;5112800;28;20515;-83
2023/01/05 13:14:12;;;;;;;29.03;19.77;;;13.40;99.90;;;;;;5107357;28;20543;-83
2023/01/05 13:16:45;;;;;;;24.67;16.50;;;13.40;99.90;;;;;;5112649;28;20558;-85
2023/01/05 13:19:16;;;;;;;21.33;16.57;;;13.40;99.90;;;;;;5112731;28;20493;-84
2023/01/05 13:21:44;;;;;;;22.47;15.83;;;13.40;99.90;;;;;;5112674;28;20420;-85
2023/01/05 13:24:25;;;;;;;20.50;15.73;;;13.50;99.90;;;;;;5113931;28;20936;-83